sensor_id;sensor_type;location;lat;lon;timestamp;P1;durP1;ratioP1;P2;durP2;ratioP2
21894;SDS011;11112;51.270;7.224;2022-08-19T00:00:51;12.35;;;9.20;;
21894;SDS011;11112;51.270;7.224;2022-08-19T00:03:18;10.30;;;9.18;;
21894;SDS011;11112;51.270;7.224;2022-08-19T00:05:48;8.57;;;7.70;;
21894;SDS011;11112;51.270;7.224;2022-08-19T00:08:15;8.32;;;6.57;;
21894;SDS011;11112;51.270;7.224;2022-08-19T00:10:44;11.43;;;6.55;;
21894;SDS011;11112;51.270;7.224;2022-08-19T00:13:12;9.45;;;8.20;;
21894;SDS011;11112;51.270;7.224;2022-08-19T00:15:40;8.63;;;7.70;;
21894;SDS011;11112;51.270;7.224;2022-08-19T00:18:09;10.43;;;8.18;;
21894;SDS011;11112;51.270;7.224;2022-08-19T00:20:37;9.88;;;8.30;;
21894;SDS011;11112;51.270;7.224;2022-08-19T00:23:05;9.15;;;8.20;;
21894;SDS011;11112;51.270;7.224;2022-08-19T00:25:33;9.30;;;7.80;;
21894;SDS011;11112;51.270;7.224;2022-08-19T00:28:03;8.60;;;7.28;;
21894;SDS011;11112;51.270;7.224;2022-08-19T00:30:30;9.00;;;7.90;;
21894;SDS011;11112;51.270;7.224;2022-08-19T00:32:57;8.13;;;7.20;;
21894;SDS011;11112;51.270;7.224;2022-08-19T00:35:25;8.27;;;7.47;;
21894;SDS011;11112;51.270;7.224;2022-08-19T00:37:56;9.27;;;7.72;;
21894;SDS011;11112;51.270;7.224;2022-08-19T00:40:23;10.57;;;7.65;;
21894;SDS011;11112;51.270;7.224;2022-08-19T00:42:51;8.48;;;7.60;;
21894;SDS011;11112;51.270;7.224;2022-08-19T00:45:21;7.57;;;6.80;;
21894;SDS011;11112;51.270;7.224;2022-08-19T00:47:52;8.93;;;6.55;;
21894;SDS011;11112;51.270;7.224;2022-08-19T00:50:20;7.35;;;6.53;;
21894;SDS011;11112;51.270;7.224;2022-08-19T00:52:48;9.93;;;7.00;;
21894;SDS011;11112;51.270;7.224;2022-08-19T00:55:18;10.55;;;7.60;;
21894;SDS011;11112;51.270;7.224;2022-08-19T00:57:49;8.35;;;7.20;;
21894;SDS011;11112;51.270;7.224;2022-08-19T01:00:23;12.98;;;8.40;;
21894;SDS011;11112;51.270;7.224;2022-08-19T01:02:52;10.35;;;8.27;;
21894;SDS011;11112;51.270;7.224;2022-08-19T01:05:20;9.48;;;8.48;;
21894;SDS011;11112;51.270;7.224;2022-08-19T01:07:52;10.68;;;8.15;;
21894;SDS011;11112;51.270;7.224;2022-08-19T01:10:22;11.23;;;8.68;;
21894;SDS011;11112;51.270;7.224;2022-08-19T01:12:55;11.63;;;9.23;;
21894;SDS011;11112;51.270;7.224;2022-08-19T01:15:27;11.23;;;9.20;;
21894;SDS011;11112;51.270;7.224;2022-08-19T01:18:06;10.52;;;9.20;;
21894;SDS011;11112;51.270;7.224;2022-08-19T01:20:36;10.95;;;8.48;;
21894;SDS011;11112;51.270;7.224;2022-08-19T01:23:05;11.18;;;8.60;;
21894;SDS011;11112;51.270;7.224;2022-08-19T01:25:33;9.70;;;8.68;;
21894;SDS011;11112;51.270;7.224;2022-08-19T01:28:06;9.95;;;8.95;;
21894;SDS011;11112;51.270;7.224;2022-08-19T01:30:39;11.90;;;9.30;;
21894;SDS011;11112;51.270;7.224;2022-08-19T01:33:06;10.13;;;9.10;;
21894;SDS011;11112;51.270;7.224;2022-08-19T01:35:33;10.07;;;9.00;;
21894;SDS011;11112;51.270;7.224;2022-08-19T01:38:04;11.15;;;9.07;;
21894;SDS011;11112;51.270;7.224;2022-08-19T01:40:35;15.15;;;10.65;;
21894;SDS011;11112;51.270;7.224;2022-08-19T01:43:07;11.40;;;10.20;;
21894;SDS011;11112;51.270;7.224;2022-08-19T01:45:35;15.23;;;10.25;;
21894;SDS011;11112;51.270;7.224;2022-08-19T01:48:02;12.27;;;9.82;;
21894;SDS011;11112;51.270;7.224;2022-08-19T01:50:30;11.88;;;9.98;;
21894;SDS011;11112;51.270;7.224;2022-08-19T01:52:59;11.60;;;10.05;;
21894;SDS011;11112;51.270;7.224;2022-08-19T01:55:32;12.15;;;10.85;;
21894;SDS011;11112;51.270;7.224;2022-08-19T01:58:02;15.40;;;12.13;;
21894;SDS011;11112;51.270;7.224;2022-08-19T02:00:32;14.85;;;11.45;;
21894;SDS011;11112;51.270;7.224;2022-08-19T02:03:00;14.18;;;12.02;;
21894;SDS011;11112;51.270;7.224;2022-08-19T02:05:27;13.18;;;11.65;;
21894;SDS011;11112;51.270;7.224;2022-08-19T02:07:55;12.27;;;10.60;;
21894;SDS011;11112;51.270;7.224;2022-08-19T02:10:24;11.05;;;9.73;;
21894;SDS011;11112;51.270;7.224;2022-08-19T02:12:53;12.15;;;9.73;;
21894;SDS011;11112;51.270;7.224;2022-08-19T02:15:20;10.20;;;9.20;;
21894;SDS011;11112;51.270;7.224;2022-08-19T02:17:48;11.63;;;9.43;;
21894;SDS011;11112;51.270;7.224;2022-08-19T02:20:15;11.18;;;8.82;;
21894;SDS011;11112;51.270;7.224;2022-08-19T02:22:43;12.40;;;9.43;;
21894;SDS011;11112;51.270;7.224;2022-08-19T02:25:10;10.88;;;9.77;;
21894;SDS011;11112;51.270;7.224;2022-08-19T02:27:40;10.88;;;9.55;;
21894;SDS011;11112;51.270;7.224;2022-08-19T02:30:17;11.52;;;10.30;;
21894;SDS011;11112;51.270;7.224;2022-08-19T02:32:44;12.05;;;10.80;;
21894;SDS011;11112;51.270;7.224;2022-08-19T02:35:12;14.35;;;11.77;;
21894;SDS011;11112;51.270;7.224;2022-08-19T02:37:41;15.23;;;12.35;;
21894;SDS011;11112;51.270;7.224;2022-08-19T02:40:26;12.05;;;10.63;;
21894;SDS011;11112;51.270;7.224;2022-08-19T02:42:53;14.50;;;10.35;;
21894;SDS011;11112;51.270;7.224;2022-08-19T02:45:23;12.85;;;10.15;;
21894;SDS011;11112;51.270;7.224;2022-08-19T02:47:50;11.90;;;10.70;;
21894;SDS011;11112;51.270;7.224;2022-08-19T02:50:18;12.38;;;10.70;;
21894;SDS011;11112;51.270;7.224;2022-08-19T02:52:45;12.10;;;10.20;;
21894;SDS011;11112;51.270;7.224;2022-08-19T02:55:14;12.15;;;9.20;;
21894;SDS011;11112;51.270;7.224;2022-08-19T02:57:41;10.32;;;9.23;;
21894;SDS011;11112;51.270;7.224;2022-08-19T03:00:09;10.45;;;9.35;;
21894;SDS011;11112;51.270;7.224;2022-08-19T03:02:39;13.25;;;10.43;;
21894;SDS011;11112;51.270;7.224;2022-08-19T03:05:07;10.98;;;9.88;;
21894;SDS011;11112;51.270;7.224;2022-08-19T03:07:36;11.30;;;9.48;;
21894;SDS011;11112;51.270;7.224;2022-08-19T03:10:03;12.02;;;9.40;;
21894;SDS011;11112;51.270;7.224;2022-08-19T03:12:34;10.55;;;9.45;;
21894;SDS011;11112;51.270;7.224;2022-08-19T03:15:03;10.32;;;9.07;;
21894;SDS011;11112;51.270;7.224;2022-08-19T03:17:32;10.95;;;9.80;;
21894;SDS011;11112;51.270;7.224;2022-08-19T03:20:02;10.98;;;9.88;;
21894;SDS011;11112;51.270;7.224;2022-08-19T03:22:31;13.23;;;10.15;;
21894;SDS011;11112;51.270;7.224;2022-08-19T03:24:58;10.68;;;9.30;;
21894;SDS011;11112;51.270;7.224;2022-08-19T03:27:26;10.18;;;8.75;;
21894;SDS011;11112;51.270;7.224;2022-08-19T03:29:54;10.32;;;8.82;;
21894;SDS011;11112;51.270;7.224;2022-08-19T03:32:24;12.43;;;9.73;;
21894;SDS011;11112;51.270;7.224;2022-08-19T03:34:51;12.05;;;10.43;;
21894;SDS011;11112;51.270;7.224;2022-08-19T03:37:20;10.38;;;9.15;;
21894;SDS011;11112;51.270;7.224;2022-08-19T03:39:48;11.68;;;9.10;;
21894;SDS011;11112;51.270;7.224;2022-08-19T03:42:15;11.45;;;9.63;;
21894;SDS011;11112;51.270;7.224;2022-08-19T03:44:42;10.98;;;9.55;;
21894;SDS011;11112;51.270;7.224;2022-08-19T03:47:10;11.30;;;9.68;;
21894;SDS011;11112;51.270;7.224;2022-08-19T03:49:43;14.57;;;9.90;;
21894;SDS011;11112;51.270;7.224;2022-08-19T03:52:11;11.02;;;9.85;;
21894;SDS011;11112;51.270;7.224;2022-08-19T03:54:40;12.00;;;10.73;;
21894;SDS011;11112;51.270;7.224;2022-08-19T03:57:07;11.20;;;10.07;;
21894;SDS011;11112;51.270;7.224;2022-08-19T03:59:37;12.40;;;10.88;;
21894;SDS011;11112;51.270;7.224;2022-08-19T04:02:06;13.93;;;10.52;;
21894;SDS011;11112;51.270;7.224;2022-08-19T04:04:36;12.60;;;10.77;;
21894;SDS011;11112;51.270;7.224;2022-08-19T04:07:04;12.25;;;10.32;;
21894;SDS011;11112;51.270;7.224;2022-08-19T04:09:32;12.40;;;10.95;;
21894;SDS011;11112;51.270;7.224;2022-08-19T04:12:03;13.40;;;10.70;;
21894;SDS011;11112;51.270;7.224;2022-08-19T04:14:32;12.98;;;10.40;;
21894;SDS011;11112;51.270;7.224;2022-08-19T04:17:01;11.90;;;10.20;;
21894;SDS011;11112;51.270;7.224;2022-08-19T04:19:30;14.02;;;11.10;;
21894;SDS011;11112;51.270;7.224;2022-08-19T04:21:59;13.35;;;10.50;;
21894;SDS011;11112;51.270;7.224;2022-08-19T04:24:26;13.40;;;11.10;;
21894;SDS011;11112;51.270;7.224;2022-08-19T04:26:53;12.73;;;10.85;;
21894;SDS011;11112;51.270;7.224;2022-08-19T04:29:23;15.55;;;11.60;;
21894;SDS011;11112;51.270;7.224;2022-08-19T04:31:52;13.27;;;11.60;;
21894;SDS011;11112;51.270;7.224;2022-08-19T04:34:22;12.68;;;11.38;;
21894;SDS011;11112;51.270;7.224;2022-08-19T04:36:54;13.73;;;12.05;;
21894;SDS011;11112;51.270;7.224;2022-08-19T04:39:25;14.30;;;12.32;;
21894;SDS011;11112;51.270;7.224;2022-08-19T04:42:09;14.80;;;12.05;;
21894;SDS011;11112;51.270;7.224;2022-08-19T04:44:56;13.98;;;11.30;;
21894;SDS011;11112;51.270;7.224;2022-08-19T04:47:23;12.55;;;10.77;;
21894;SDS011;11112;51.270;7.224;2022-08-19T04:49:51;14.02;;;11.23;;
21894;SDS011;11112;51.270;7.224;2022-08-19T04:52:18;12.10;;;10.88;;
21894;SDS011;11112;51.270;7.224;2022-08-19T04:54:45;14.30;;;11.18;;
21894;SDS011;11112;51.270;7.224;2022-08-19T04:57:13;12.30;;;11.00;;
21894;SDS011;11112;51.270;7.224;2022-08-19T04:59:40;11.93;;;10.63;;
21894;SDS011;11112;51.270;7.224;2022-08-19T05:02:08;12.77;;;11.40;;
21894;SDS011;11112;51.270;7.224;2022-08-19T05:04:36;15.43;;;11.95;;
21894;SDS011;11112;51.270;7.224;2022-08-19T05:07:04;13.68;;;11.45;;
21894;SDS011;11112;51.270;7.224;2022-08-19T05:09:31;14.27;;;11.80;;
21894;SDS011;11112;51.270;7.224;2022-08-19T05:12:01;12.43;;;11.07;;
21894;SDS011;11112;51.270;7.224;2022-08-19T05:14:30;16.17;;;12.18;;
21894;SDS011;11112;51.270;7.224;2022-08-19T05:16:58;14.48;;;11.52;;
21894;SDS011;11112;51.270;7.224;2022-08-19T05:19:28;13.45;;;12.02;;
21894;SDS011;11112;51.270;7.224;2022-08-19T05:22:12;12.45;;;11.13;;
21894;SDS011;11112;51.270;7.224;2022-08-19T05:24:57;13.38;;;11.63;;
21894;SDS011;11112;51.270;7.224;2022-08-19T05:27:25;13.00;;;11.60;;
21894;SDS011;11112;51.270;7.224;2022-08-19T05:29:55;14.68;;;11.45;;
21894;SDS011;11112;51.270;7.224;2022-08-19T05:32:22;13.00;;;11.55;;
21894;SDS011;11112;51.270;7.224;2022-08-19T05:34:54;13.90;;;11.50;;
21894;SDS011;11112;51.270;7.224;2022-08-19T05:37:21;13.57;;;12.00;;
21894;SDS011;11112;51.270;7.224;2022-08-19T05:39:53;12.80;;;11.35;;
21894;SDS011;11112;51.270;7.224;2022-08-19T05:42:20;13.63;;;11.60;;
21894;SDS011;11112;51.270;7.224;2022-08-19T05:44:49;13.45;;;12.02;;
21894;SDS011;11112;51.270;7.224;2022-08-19T05:47:17;14.20;;;11.90;;
21894;SDS011;11112;51.270;7.224;2022-08-19T05:49:45;14.25;;;12.13;;
21894;SDS011;11112;51.270;7.224;2022-08-19T05:52:14;13.02;;;11.63;;
21894;SDS011;11112;51.270;7.224;2022-08-19T05:54:42;15.93;;;11.75;;
21894;SDS011;11112;51.270;7.224;2022-08-19T05:57:10;13.48;;;11.27;;
21894;SDS011;11112;51.270;7.224;2022-08-19T05:59:37;14.55;;;11.52;;
21894;SDS011;11112;51.270;7.224;2022-08-19T06:02:04;13.55;;;11.00;;
21894;SDS011;11112;51.270;7.224;2022-08-19T06:04:33;12.52;;;10.48;;
21894;SDS011;11112;51.270;7.224;2022-08-19T06:07:00;13.82;;;11.02;;
21894;SDS011;11112;51.270;7.224;2022-08-19T06:09:30;16.45;;;10.73;;
21894;SDS011;11112;51.270;7.224;2022-08-19T06:11:57;15.43;;;11.27;;
21894;SDS011;11112;51.270;7.224;2022-08-19T06:14:28;14.68;;;11.38;;
21894;SDS011;11112;51.270;7.224;2022-08-19T06:16:59;13.75;;;12.25;;
21894;SDS011;11112;51.270;7.224;2022-08-19T06:19:27;12.40;;;11.07;;
21894;SDS011;11112;51.270;7.224;2022-08-19T06:22:20;13.82;;;10.90;;
21894;SDS011;11112;51.270;7.224;2022-08-19T06:25:13;13.10;;;10.45;;
21894;SDS011;11112;51.270;7.224;2022-08-19T06:28:05;12.40;;;11.10;;
21894;SDS011;11112;51.270;7.224;2022-08-19T06:30:56;15.15;;;11.88;;
21894;SDS011;11112;51.270;7.224;2022-08-19T06:33:47;15.00;;;11.88;;
21894;SDS011;11112;51.270;7.224;2022-08-19T06:36:41;13.68;;;12.23;;
21894;SDS011;11112;51.270;7.224;2022-08-19T06:39:36;14.60;;;11.95;;
21894;SDS011;11112;51.270;7.224;2022-08-19T06:42:31;14.88;;;10.93;;
21894;SDS011;11112;51.270;7.224;2022-08-19T06:45:22;13.88;;;10.82;;
21894;SDS011;11112;51.270;7.224;2022-08-19T06:48:14;12.55;;;11.20;;
21894;SDS011;11112;51.270;7.224;2022-08-19T06:51:05;15.05;;;11.55;;
21894;SDS011;11112;51.270;7.224;2022-08-19T06:53:57;14.70;;;11.45;;
21894;SDS011;11112;51.270;7.224;2022-08-19T06:56:49;14.80;;;12.15;;
21894;SDS011;11112;51.270;7.224;2022-08-19T06:59:41;13.45;;;12.00;;
21894;SDS011;11112;51.270;7.224;2022-08-19T07:02:32;16.15;;;12.70;;
21894;SDS011;11112;51.270;7.224;2022-08-19T07:05:23;18.75;;;13.70;;
21894;SDS011;11112;51.270;7.224;2022-08-19T07:08:14;19.60;;;14.35;;
21894;SDS011;11112;51.270;7.224;2022-08-19T07:11:05;20.77;;;16.45;;
21894;SDS011;11112;51.270;7.224;2022-08-19T07:13:58;21.00;;;16.50;;
21894;SDS011;11112;51.270;7.224;2022-08-19T07:16:51;24.83;;;18.38;;
21894;SDS011;11112;51.270;7.224;2022-08-19T07:19:45;21.80;;;16.92;;
21894;SDS011;11112;51.270;7.224;2022-08-19T07:22:36;19.60;;;15.90;;
21894;SDS011;11112;51.270;7.224;2022-08-19T07:25:28;24.42;;;18.73;;
21894;SDS011;11112;51.270;7.224;2022-08-19T07:28:19;31.33;;;21.35;;
21894;SDS011;11112;51.270;7.224;2022-08-19T07:31:10;24.77;;;20.05;;
21894;SDS011;11112;51.270;7.224;2022-08-19T07:36:58;28.13;;;21.52;;
21894;SDS011;11112;51.270;7.224;2022-08-19T07:39:49;28.00;;;22.27;;
21894;SDS011;11112;51.270;7.224;2022-08-19T07:42:41;26.00;;;19.63;;
21894;SDS011;11112;51.270;7.224;2022-08-19T07:45:32;28.73;;;21.27;;
21894;SDS011;11112;51.270;7.224;2022-08-19T07:48:23;26.13;;;20.70;;
21894;SDS011;11112;51.270;7.224;2022-08-19T07:51:18;26.85;;;18.20;;
21894;SDS011;11112;51.270;7.224;2022-08-19T07:54:11;28.85;;;19.42;;
21894;SDS011;11112;51.270;7.224;2022-08-19T07:57:03;27.23;;;21.48;;
21894;SDS011;11112;51.270;7.224;2022-08-19T07:59:55;27.53;;;21.17;;
21894;SDS011;11112;51.270;7.224;2022-08-19T08:02:46;27.50;;;20.27;;
21894;SDS011;11112;51.270;7.224;2022-08-19T08:05:37;32.35;;;21.30;;
21894;SDS011;11112;51.270;7.224;2022-08-19T08:08:29;28.85;;;21.95;;
21894;SDS011;11112;51.270;7.224;2022-08-19T08:11:21;24.75;;;20.55;;
21894;SDS011;11112;51.270;7.224;2022-08-19T08:14:12;29.98;;;22.95;;
21894;SDS011;11112;51.270;7.224;2022-08-19T08:17:04;28.50;;;22.98;;
21894;SDS011;11112;51.270;7.224;2022-08-19T08:19:56;36.50;;;26.20;;
21894;SDS011;11112;51.270;7.224;2022-08-19T08:22:47;34.58;;;27.83;;
21894;SDS011;11112;51.270;7.224;2022-08-19T08:25:33;31.17;;;23.67;;
21894;SDS011;11112;51.270;7.224;2022-08-19T08:28:19;34.00;;;27.27;;
21894;SDS011;11112;51.270;7.224;2022-08-19T08:31:05;31.80;;;26.67;;
21894;SDS011;11112;51.270;7.224;2022-08-19T08:33:34;36.38;;;27.83;;
21894;SDS011;11112;51.270;7.224;2022-08-19T08:36:01;34.60;;;29.23;;
21894;SDS011;11112;51.270;7.224;2022-08-19T08:38:30;31.58;;;26.27;;
21894;SDS011;11112;51.270;7.224;2022-08-19T08:41:01;32.20;;;26.38;;
21894;SDS011;11112;51.270;7.224;2022-08-19T08:43:39;36.80;;;28.35;;
21894;SDS011;11112;51.270;7.224;2022-08-19T08:46:10;35.60;;;29.38;;
21894;SDS011;11112;51.270;7.224;2022-08-19T08:48:44;36.55;;;29.33;;
21894;SDS011;11112;51.270;7.224;2022-08-19T08:51:19;41.75;;;32.00;;
21894;SDS011;11112;51.270;7.224;2022-08-19T08:53:51;41.72;;;32.30;;
21894;SDS011;11112;51.270;7.224;2022-08-19T08:56:21;44.58;;;37.85;;
21894;SDS011;11112;51.270;7.224;2022-08-19T08:58:51;45.88;;;37.92;;
21894;SDS011;11112;51.270;7.224;2022-08-19T09:01:25;42.53;;;34.90;;
21894;SDS011;11112;51.270;7.224;2022-08-19T09:03:52;43.05;;;36.42;;
21894;SDS011;11112;51.270;7.224;2022-08-19T09:06:23;41.47;;;35.30;;
21894;SDS011;11112;51.270;7.224;2022-08-19T09:09:00;39.65;;;33.78;;
21894;SDS011;11112;51.270;7.224;2022-08-19T09:11:47;41.00;;;32.90;;
21894;SDS011;11112;51.270;7.224;2022-08-19T09:14:28;34.25;;;29.25;;
21894;SDS011;11112;51.270;7.224;2022-08-19T09:17:06;35.28;;;28.55;;
21894;SDS011;11112;51.270;7.224;2022-08-19T09:19:34;30.33;;;25.48;;
21894;SDS011;11112;51.270;7.224;2022-08-19T09:22:02;27.80;;;22.95;;
21894;SDS011;11112;51.270;7.224;2022-08-19T09:24:30;26.05;;;20.02;;
21894;SDS011;11112;51.270;7.224;2022-08-19T09:26:58;24.88;;;19.77;;
21894;SDS011;11112;51.270;7.224;2022-08-19T09:29:27;24.58;;;20.95;;
21894;SDS011;11112;51.270;7.224;2022-08-19T09:31:54;26.77;;;20.45;;
21894;SDS011;11112;51.270;7.224;2022-08-19T09:34:21;26.00;;;22.17;;
21894;SDS011;11112;51.270;7.224;2022-08-19T09:36:49;23.35;;;18.92;;
21894;SDS011;11112;51.270;7.224;2022-08-19T09:39:18;26.08;;;21.08;;
21894;SDS011;11112;51.270;7.224;2022-08-19T09:41:45;28.92;;;19.67;;
21894;SDS011;11112;51.270;7.224;2022-08-19T09:44:16;22.92;;;19.90;;
21894;SDS011;11112;51.270;7.224;2022-08-19T09:46:45;24.88;;;20.45;;
21894;SDS011;11112;51.270;7.224;2022-08-19T09:49:13;29.38;;;22.80;;
21894;SDS011;11112;51.270;7.224;2022-08-19T09:51:41;25.55;;;21.92;;
21894;SDS011;11112;51.270;7.224;2022-08-19T09:54:09;23.75;;;18.63;;
21894;SDS011;11112;51.270;7.224;2022-08-19T09:56:36;23.38;;;18.42;;
21894;SDS011;11112;51.270;7.224;2022-08-19T09:59:03;21.88;;;17.63;;
21894;SDS011;11112;51.270;7.224;2022-08-19T10:01:33;21.58;;;17.20;;
21894;SDS011;11112;51.270;7.224;2022-08-19T10:04:01;21.33;;;17.55;;
21894;SDS011;11112;51.270;7.224;2022-08-19T10:06:29;22.52;;;17.48;;
21894;SDS011;11112;51.270;7.224;2022-08-19T10:08:58;23.42;;;17.45;;
21894;SDS011;11112;51.270;7.224;2022-08-19T10:11:28;27.17;;;16.27;;
21894;SDS011;11112;51.270;7.224;2022-08-19T10:13:55;20.08;;;16.17;;
21894;SDS011;11112;51.270;7.224;2022-08-19T10:16:23;21.65;;;15.27;;
21894;SDS011;11112;51.270;7.224;2022-08-19T10:18:52;22.05;;;16.58;;
21894;SDS011;11112;51.270;7.224;2022-08-19T10:21:21;18.35;;;15.45;;
21894;SDS011;11112;51.270;7.224;2022-08-19T10:23:51;22.25;;;14.98;;
21894;SDS011;11112;51.270;7.224;2022-08-19T10:26:23;19.38;;;14.68;;
21894;SDS011;11112;51.270;7.224;2022-08-19T10:28:53;21.98;;;15.02;;
21894;SDS011;11112;51.270;7.224;2022-08-19T10:31:21;22.45;;;16.80;;
21894;SDS011;11112;51.270;7.224;2022-08-19T10:33:54;19.20;;;15.13;;
21894;SDS011;11112;51.270;7.224;2022-08-19T10:36:24;22.83;;;16.45;;
21894;SDS011;11112;51.270;7.224;2022-08-19T10:38:55;21.70;;;15.80;;
21894;SDS011;11112;51.270;7.224;2022-08-19T10:41:24;19.70;;;16.33;;
21894;SDS011;11112;51.270;7.224;2022-08-19T10:43:56;20.50;;;15.80;;
21894;SDS011;11112;51.270;7.224;2022-08-19T10:46:26;23.70;;;14.50;;
21894;SDS011;11112;51.270;7.224;2022-08-19T10:48:57;19.90;;;15.70;;
21894;SDS011;11112;51.270;7.224;2022-08-19T10:51:25;20.33;;;13.55;;
21894;SDS011;11112;51.270;7.224;2022-08-19T10:54:10;21.05;;;16.65;;
21894;SDS011;11112;51.270;7.224;2022-08-19T10:56:37;17.50;;;15.65;;
21894;SDS011;11112;51.270;7.224;2022-08-19T10:59:20;18.02;;;15.15;;
21894;SDS011;11112;51.270;7.224;2022-08-19T11:01:50;16.58;;;12.73;;
21894;SDS011;11112;51.270;7.224;2022-08-19T11:04:19;19.08;;;15.23;;
21894;SDS011;11112;51.270;7.224;2022-08-19T11:06:48;17.05;;;13.60;;
21894;SDS011;11112;51.270;7.224;2022-08-19T11:09:16;18.67;;;14.10;;
21894;SDS011;11112;51.270;7.224;2022-08-19T11:11:45;19.08;;;13.95;;
21894;SDS011;11112;51.270;7.224;2022-08-19T11:14:13;20.30;;;14.60;;
21894;SDS011;11112;51.270;7.224;2022-08-19T11:16:43;18.67;;;13.93;;
21894;SDS011;11112;51.270;7.224;2022-08-19T11:19:11;17.77;;;13.93;;
21894;SDS011;11112;51.270;7.224;2022-08-19T11:21:41;15.75;;;12.45;;
21894;SDS011;11112;51.270;7.224;2022-08-19T11:24:13;17.08;;;12.23;;
21894;SDS011;11112;51.270;7.224;2022-08-19T11:26:43;13.65;;;10.98;;
21894;SDS011;11112;51.270;7.224;2022-08-19T11:29:11;15.57;;;12.15;;
21894;SDS011;11112;51.270;7.224;2022-08-19T11:31:40;18.60;;;15.23;;
21894;SDS011;11112;51.270;7.224;2022-08-19T11:34:09;17.02;;;14.05;;
21894;SDS011;11112;51.270;7.224;2022-08-19T11:36:39;15.85;;;13.23;;
21894;SDS011;11112;51.270;7.224;2022-08-19T11:39:11;15.85;;;13.88;;
21894;SDS011;11112;51.270;7.224;2022-08-19T11:41:40;16.15;;;12.93;;
21894;SDS011;11112;51.270;7.224;2022-08-19T11:44:07;15.35;;;11.77;;
21894;SDS011;11112;51.270;7.224;2022-08-19T11:46:35;13.77;;;10.95;;
21894;SDS011;11112;51.270;7.224;2022-08-19T11:49:04;16.13;;;11.98;;
21894;SDS011;11112;51.270;7.224;2022-08-19T11:51:34;13.75;;;10.55;;
21894;SDS011;11112;51.270;7.224;2022-08-19T11:54:04;13.35;;;11.10;;
21894;SDS011;11112;51.270;7.224;2022-08-19T11:56:32;15.50;;;12.02;;
21894;SDS011;11112;51.270;7.224;2022-08-19T11:59:00;15.70;;;12.45;;
21894;SDS011;11112;51.270;7.224;2022-08-19T12:01:27;13.93;;;11.20;;
21894;SDS011;11112;51.270;7.224;2022-08-19T12:03:55;14.15;;;10.73;;
21894;SDS011;11112;51.270;7.224;2022-08-19T12:06:25;16.80;;;13.10;;
21894;SDS011;11112;51.270;7.224;2022-08-19T12:08:57;13.02;;;11.52;;
21894;SDS011;11112;51.270;7.224;2022-08-19T12:11:30;20.02;;;13.55;;
21894;SDS011;11112;51.270;7.224;2022-08-19T12:13:57;18.02;;;12.55;;
21894;SDS011;11112;51.270;7.224;2022-08-19T12:16:26;16.63;;;12.10;;
21894;SDS011;11112;51.270;7.224;2022-08-19T12:18:56;15.55;;;11.23;;
21894;SDS011;11112;51.270;7.224;2022-08-19T12:21:28;13.93;;;10.07;;
21894;SDS011;11112;51.270;7.224;2022-08-19T12:23:58;11.50;;;9.30;;
21894;SDS011;11112;51.270;7.224;2022-08-19T12:26:27;14.80;;;8.68;;
21894;SDS011;11112;51.270;7.224;2022-08-19T12:28:57;11.57;;;9.00;;
21894;SDS011;11112;51.270;7.224;2022-08-19T12:31:25;10.05;;;7.57;;
21894;SDS011;11112;51.270;7.224;2022-08-19T12:33:53;11.38;;;9.75;;
21894;SDS011;11112;51.270;7.224;2022-08-19T12:36:20;11.65;;;8.90;;
21894;SDS011;11112;51.270;7.224;2022-08-19T12:38:48;10.20;;;7.68;;
21894;SDS011;11112;51.270;7.224;2022-08-19T12:41:16;12.00;;;8.23;;
21894;SDS011;11112;51.270;7.224;2022-08-19T12:43:45;10.20;;;6.88;;
21894;SDS011;11112;51.270;7.224;2022-08-19T12:46:14;7.93;;;6.60;;
21894;SDS011;11112;51.270;7.224;2022-08-19T12:48:41;10.98;;;6.72;;
21894;SDS011;11112;51.270;7.224;2022-08-19T12:51:11;9.30;;;5.93;;
21894;SDS011;11112;51.270;7.224;2022-08-19T12:53:41;8.57;;;5.60;;
21894;SDS011;11112;51.270;7.224;2022-08-19T12:56:10;9.15;;;5.32;;
21894;SDS011;11112;51.270;7.224;2022-08-19T12:58:39;6.47;;;5.50;;
21894;SDS011;11112;51.270;7.224;2022-08-19T13:01:09;8.48;;;4.88;;
21894;SDS011;11112;51.270;7.224;2022-08-19T13:03:39;8.93;;;4.18;;
21894;SDS011;11112;51.270;7.224;2022-08-19T13:06:06;8.45;;;5.18;;
21894;SDS011;11112;51.270;7.224;2022-08-19T13:08:35;8.45;;;5.90;;
21894;SDS011;11112;51.270;7.224;2022-08-19T13:11:07;6.55;;;5.20;;
21894;SDS011;11112;51.270;7.224;2022-08-19T13:13:39;6.78;;;5.60;;
21894;SDS011;11112;51.270;7.224;2022-08-19T13:16:10;8.32;;;6.18;;
21894;SDS011;11112;51.270;7.224;2022-08-19T13:18:38;6.78;;;5.32;;
21894;SDS011;11112;51.270;7.224;2022-08-19T13:21:09;7.85;;;4.93;;
21894;SDS011;11112;51.270;7.224;2022-08-19T13:23:38;11.13;;;5.22;;
21894;SDS011;11112;51.270;7.224;2022-08-19T13:26:07;8.43;;;5.53;;
21894;SDS011;11112;51.270;7.224;2022-08-19T13:28:35;10.32;;;6.03;;
21894;SDS011;11112;51.270;7.224;2022-08-19T13:31:28;6.47;;;5.18;;
21894;SDS011;11112;51.270;7.224;2022-08-19T13:34:26;6.60;;;5.25;;
21894;SDS011;11112;51.270;7.224;2022-08-19T13:36:56;11.73;;;5.82;;
21894;SDS011;11112;51.270;7.224;2022-08-19T13:39:24;8.85;;;5.80;;
21894;SDS011;11112;51.270;7.224;2022-08-19T13:41:52;7.55;;;5.72;;
21894;SDS011;11112;51.270;7.224;2022-08-19T13:44:19;8.23;;;5.82;;
21894;SDS011;11112;51.270;7.224;2022-08-19T13:46:48;7.57;;;5.60;;
21894;SDS011;11112;51.270;7.224;2022-08-19T13:49:17;8.52;;;5.93;;
21894;SDS011;11112;51.270;7.224;2022-08-19T13:51:45;10.25;;;5.68;;
21894;SDS011;11112;51.270;7.224;2022-08-19T13:54:12;9.65;;;5.90;;
21894;SDS011;11112;51.270;7.224;2022-08-19T13:56:40;9.38;;;5.45;;
21894;SDS011;11112;51.270;7.224;2022-08-19T13:59:08;8.02;;;5.00;;
21894;SDS011;11112;51.270;7.224;2022-08-19T14:01:36;6.75;;;5.55;;
21894;SDS011;11112;51.270;7.224;2022-08-19T14:04:04;7.70;;;5.25;;
21894;SDS011;11112;51.270;7.224;2022-08-19T14:06:32;6.22;;;4.97;;
21894;SDS011;11112;51.270;7.224;2022-08-19T14:09:00;7.95;;;5.10;;
21894;SDS011;11112;51.270;7.224;2022-08-19T14:11:28;7.88;;;5.65;;
21894;SDS011;11112;51.270;7.224;2022-08-19T14:13:55;7.10;;;5.00;;
21894;SDS011;11112;51.270;7.224;2022-08-19T14:16:23;5.65;;;4.88;;
21894;SDS011;11112;51.270;7.224;2022-08-19T14:18:52;8.40;;;5.13;;
21894;SDS011;11112;51.270;7.224;2022-08-19T14:21:23;7.78;;;5.30;;
21894;SDS011;11112;51.270;7.224;2022-08-19T14:23:52;9.75;;;4.95;;
21894;SDS011;11112;51.270;7.224;2022-08-19T14:26:20;9.52;;;4.47;;
21894;SDS011;11112;51.270;7.224;2022-08-19T14:28:50;5.57;;;4.63;;
21894;SDS011;11112;51.270;7.224;2022-08-19T14:31:18;6.43;;;4.32;;
21894;SDS011;11112;51.270;7.224;2022-08-19T14:33:49;6.57;;;4.50;;
21894;SDS011;11112;51.270;7.224;2022-08-19T14:36:16;7.47;;;4.30;;
21894;SDS011;11112;51.270;7.224;2022-08-19T14:38:48;9.13;;;4.85;;
21894;SDS011;11112;51.270;7.224;2022-08-19T14:41:17;6.95;;;4.50;;
21894;SDS011;11112;51.270;7.224;2022-08-19T14:43:46;8.35;;;5.78;;
21894;SDS011;11112;51.270;7.224;2022-08-19T14:46:18;5.80;;;4.50;;
21894;SDS011;11112;51.270;7.224;2022-08-19T14:48:48;6.55;;;4.63;;
21894;SDS011;11112;51.270;7.224;2022-08-19T14:51:16;10.13;;;4.88;;
21894;SDS011;11112;51.270;7.224;2022-08-19T14:53:44;8.70;;;4.55;;
21894;SDS011;11112;51.270;7.224;2022-08-19T14:56:15;8.85;;;4.88;;
21894;SDS011;11112;51.270;7.224;2022-08-19T14:58:50;12.45;;;5.55;;
21894;SDS011;11112;51.270;7.224;2022-08-19T15:01:18;7.65;;;4.75;;